Time;durP1;ratioP1;P1;durP2;ratioP2;P2;SDS_P1;SDS_P2;PMS_P1;PMS_P2;Temp;Humidity;BMP_temperature;BMP_pressure;BME280_temperature;BME280_humidity;BME280_pressure;Samples;Min_cycle;Max_cycle;Signal;HPM_P1;HPM_P2
2023/06/25 00:02:49;;;;;;;;;;;23.00;63.20;;;22.21;56.61;100199.19;10207899;28;1083;-70
2023/06/25 00:07:44;;;;;;;;;;;23.00;63.10;;;22.20;56.47;100194.00;10207643;28;780;-70
2023/06/25 00:12:40;;;;;;;;;;;22.90;63.00;;;22.20;56.67;100186.03;10207584;28;857;-70
2023/06/25 00:17:35;;;;;;;;;;;23.00;63.10;;;22.20;56.54;100194.84;10206514;28;1959;-70
2023/06/25 00:22:30;;;;;;;;;;;23.00;63.10;;;22.20;56.45;100186.03;10206463;28;860;-70
2023/06/25 00:27:26;;;;;;;;;;;22.90;63.10;;;22.20;56.36;100186.03;10206223;28;831;-70
2023/06/25 00:32:24;;;;;;;;;;;23.00;63.10;;;22.19;56.38;100177.22;10206347;28;1185;-70
2023/06/25 00:37:20;;;;;;;;;;;23.00;63.00;;;22.20;56.46;100170.09;10206007;28;1902;-70
2023/06/25 00:42:15;;;;;;;;;;;23.00;63.10;;;22.20;56.39;100160.31;10205694;28;808;-70
2023/06/25 00:47:12;;;;;;;;;;;23.00;63.00;;;22.21;56.57;100163.81;10206159;28;878;-70
2023/06/25 00:52:09;;;;;;;;;;;23.00;63.00;;;22.19;56.51;100153.31;10205938;28;875;-70
2023/06/25 00:57:04;;;;;;;;;;;23.00;63.00;;;22.19;56.40;100160.41;10205074;28;2046;-70
2023/06/25 01:01:59;;;;;;;;;;;23.00;63.00;;;22.20;56.49;100162.13;10205077;28;848;-70
2023/06/25 01:06:55;;;;;;;;;;;23.00;62.90;;;22.19;56.62;100160.41;10206154;28;873;-70
2023/06/25 01:11:53;;;;;;;;;;;23.00;63.00;;;22.19;56.59;100149.78;10204212;28;759;-70
2023/06/25 01:16:49;;;;;;;;;;;23.00;63.00;;;22.18;56.42;100140.94;10204607;28;1902;-70
2023/06/25 01:21:44;;;;;;;;;;;23.00;63.00;;;22.17;56.35;100141.88;10204441;28;850;-70
2023/06/25 01:26:39;;;;;;;;;;;23.00;62.90;;;22.17;56.36;100144.53;10204271;28;816;-70
2023/06/25 01:31:35;;;;;;;;;;;22.90;62.80;;;22.17;56.30;100133.06;10203770;28;1245;-70
2023/06/25 01:36:30;;;;;;;;;;;22.90;62.80;;;22.17;56.34;100131.25;10203491;28;900;-70
2023/06/25 01:41:26;;;;;;;;;;;22.90;62.80;;;22.17;56.46;100125.09;10203905;28;1914;-70
2023/06/25 01:46:21;;;;;;;;;;;23.00;62.90;;;22.16;56.52;100120.72;10203909;28;862;-70
2023/06/25 01:51:16;;;;;;;;;;;23.00;62.80;;;22.16;56.55;100115.41;10203754;28;784;-70
2023/06/25 01:56:12;;;;;;;;;;;22.90;62.70;;;22.16;56.31;100110.09;10204375;28;855;-70
2023/06/25 02:01:07;;;;;;;;;;;22.90;62.70;;;22.14;56.53;100107.53;10204257;28;1966;-70
2023/06/25 02:06:03;;;;;;;;;;;22.90;62.60;;;22.16;56.51;100104.78;10203560;28;856;-70
2023/06/25 02:10:58;;;;;;;;;;;22.90;62.70;;;22.14;56.31;100102.22;10203446;28;811;-70
2023/06/25 02:15:54;;;;;;;;;;;22.90;62.60;;;22.13;56.37;100100.50;10203258;28;896;-70
2023/06/25 02:20:49;;;;;;;;;;;22.90;62.70;;;22.14;56.37;100093.38;10203174;28;1985;-70
2023/06/25 02:25:44;;;;;;;;;;;22.90;62.60;;;22.12;56.46;100089.97;10209961;28;732;-70
2023/06/25 02:30:40;;;;;;;;;;;22.90;62.60;;;22.12;56.32;100090.84;10210739;28;866;-70
2023/06/25 02:35:35;;;;;;;;;;;22.90;62.60;;;22.12;56.47;100077.56;10211183;28;1330;-70
2023/06/25 02:40:31;;;;;;;;;;;22.90;62.60;;;22.11;56.52;100075.81;10209740;28;1969;-70
2023/06/25 02:45:26;;;;;;;;;;;22.90;62.60;;;22.10;56.32;100071.47;10210906;28;845;-70
2023/06/25 02:50:21;;;;;;;;;;;22.90;62.60;;;22.10;56.28;100066.16;10210624;28;810;-70
2023/06/25 02:55:17;;;;;;;;;;;22.90;62.50;;;22.10;56.50;100074.97;10210972;28;897;-70
2023/06/25 03:00:12;;;;;;;;;;;22.90;62.60;;;22.08;56.42;100076.84;10209537;28;1906;-70
2023/06/25 03:05:08;;;;;;;;;;;22.90;62.50;;;22.08;56.28;100066.25;10209901;28;1080;-70
2023/06/25 03:10:03;;;;;;;;;;;22.80;62.40;;;22.08;56.50;100060.06;10209203;28;856;-70
2023/06/25 03:14:58;;;;;;;;;;;22.80;62.40;;;22.08;56.44;100060.06;10209080;28;1001;-70
2023/06/25 03:19:54;;;;;;;;;;;22.80;62.40;;;22.08;56.24;100073.34;10209574;28;1906;-70
2023/06/25 03:24:49;;;;;;;;;;;22.80;62.40;;;22.07;56.47;100061.03;10208668;28;879;-70
2023/06/25 03:29:45;;;;;;;;;;;22.80;62.40;;;22.06;56.34;100068.16;10208580;28;783;-70
2023/06/25 03:34:40;;;;;;;;;;;22.80;62.40;;;22.06;56.24;100065.50;10207370;28;1364;-70
2023/06/25 03:39:35;;;;;;;;;;;22.80;62.40;;;22.06;56.41;100061.97;10208711;28;1922;-70
2023/06/25 03:44:31;;;;;;;;;;;22.80;62.40;;;22.05;56.50;100054.94;10208556;28;861;-70
2023/06/25 03:49:26;;;;;;;;;;;22.80;62.30;;;22.04;56.25;100053.25;10208583;28;821;-70
2023/06/25 03:54:22;;;;;;;;;;;22.80;62.30;;;22.04;56.18;100050.59;10208370;28;836;-70
2023/06/25 03:59:17;;;;;;;;;;;22.80;62.40;;;22.04;56.31;100055.91;10207394;28;1910;-70
2023/06/25 04:04:12;;;;;;;;;;;22.80;62.40;;;22.03;56.31;100054.16;10207247;28;945;-70
2023/06/25 04:09:08;;;;;;;;;;;22.80;62.40;;;22.03;56.24;100054.16;10207109;28;904;-68
2023/06/25 04:14:03;;;;;;;;;;;22.80;62.30;;;22.02;56.48;100052.47;10206257;28;881;-70
2023/06/25 04:18:59;;;;;;;;;;;22.80;62.40;;;22.00;56.25;100047.22;10206568;28;1971;-70
2023/06/25 04:23:54;;;;;;;;;;;22.80;62.40;;;22.00;56.27;100043.72;10207178;28;1019;-69
2023/06/25 04:28:49;;;;;;;;;;;22.80;62.40;;;22.00;56.39;100047.22;10206322;28;905;-71
2023/06/25 04:33:45;;;;;;;;;;;22.80;62.40;;;21.98;56.51;100043.84;10206262;28;1157;-70
2023/06/25 04:38:40;;;;;;;;;;;22.70;62.30;;;21.99;56.39;100050.00;10206079;28;1973;-70
2023/06/25 04:43:36;;;;;;;;;;;22.70;62.30;;;21.97;56.35;100043.91;10205147;28;830;-70
2023/06/25 04:48:31;;;;;;;;;;;22.70;62.30;;;21.97;56.32;100041.25;10205278;28;825;-70
2023/06/25 04:53:26;;;;;;;;;;;22.70;62.30;;;21.96;56.37;100039.56;10205396;28;814;-70
2023/06/25 04:58:22;;;;;;;;;;;22.70;62.30;;;21.95;56.42;100041.31;10205175;28;1910;-69
2023/06/25 05:03:18;;;;;;;;;;;22.70;62.40;;;21.95;56.31;100045.78;10204830;28;1100;-70
2023/06/25 05:08:14;;;;;;;;;;;22.70;62.40;;;21.95;56.51;100048.44;10205518;28;878;-69
2023/06/25 05:13:10;;;;;;;;;;;22.70;62.30;;;21.94;56.32;100050.25;10204752;28;743;-70
2023/06/25 05:18:05;;;;;;;;;;;22.70;62.30;;;21.93;56.48;100045.88;10204555;28;1914;-70
2023/06/25 05:23:00;;;;;;;;;;;22.70;62.40;;;21.92;56.54;100044.16;10204634;28;901;-69
2023/06/25 05:27:56;;;;;;;;;;;22.70;62.40;;;21.93;56.46;100056.50;10205523;28;829;-70
2023/06/25 05:32:51;;;;;;;;;;;22.70;62.40;;;21.92;56.53;100046.81;10205272;28;1146;-68
2023/06/25 05:37:47;;;;;;;;;;;22.60;62.30;;;21.91;56.58;100049.56;10204671;28;1977;-70
2023/06/25 05:42:42;;;;;;;;;;;22.60;62.40;;;21.91;56.31;100053.06;10205227;28;851;-69
2023/06/25 05:47:37;;;;;;;;;;;22.60;62.30;;;21.90;56.30;100048.69;10203884;28;871;-69
2023/06/25 05:52:33;;;;;;;;;;;22.60;62.30;;;21.89;56.56;100053.16;10203782;28;839;-69
2023/06/25 05:57:28;;;;;;;;;;;22.60;62.40;;;21.89;56.50;100049.63;10207058;28;1961;-69
2023/06/25 06:02:24;;;;;;;;;;;22.60;62.40;;;21.89;56.39;100045.19;10212164;28;1036;-69
2023/06/25 06:07:19;;;;;;;;;;;22.60;62.40;;;21.87;56.57;100041.75;10211670;28;882;-68
2023/06/25 06:12:14;;;;;;;;;;;22.60;62.40;;;21.86;56.50;100044.50;10211537;28;853;-69
2023/06/25 06:17:10;;;;;;;;;;;22.60;62.40;;;21.86;56.49;100040.06;10211233;28;1959;-68
2023/06/25 06:22:05;;;;;;;;;;;22.60;62.40;;;21.86;56.51;100047.16;10211568;28;811;-70
2023/06/25 06:27:01;;;;;;;;;;;22.60;62.50;;;21.84;57.86;100044.59;10210975;28;939;-69
2023/06/25 06:31:56;;;;;;;;;;;22.50;64.60;;;21.81;58.49;100044.75;10211312;28;1320;-68
2023/06/25 06:36:52;;;;;;;;;;;22.50;66.30;;;21.79;59.15;100043.97;10234556;28;1123;-70
2023/06/25 06:41:47;;;;;;;;;;;22.40;66.20;;;21.78;59.24;100036.13;10250554;28;1977;-69
2023/06/25 06:46:42;;;;;;;;;;;22.50;66.20;;;21.79;59.15;100037.81;10249398;28;881;-69
2023/06/25 06:51:38;;;;;;;;;;;22.50;66.40;;;21.79;59.32;100030.72;10250430;28;789;-69
2023/06/25 06:56:33;;;;;;;;;;;22.50;66.10;;;21.83;59.48;100034.06;10250539;28;806;-69
2023/06/25 07:01:29;;;;;;;;;;;22.50;66.20;;;21.86;59.57;100033.91;10249774;28;1910;-69
2023/06/25 07:06:24;;;;;;;;;;;22.50;67.90;;;21.90;59.42;100030.09;10249164;28;810;-69
2023/06/25 07:11:20;;;;;;;;;;;22.50;67.80;;;21.92;59.52;100022.91;10247934;28;807;-68
2023/06/25 07:16:15;;;;;;;;;;;22.50;68.00;;;21.93;59.18;100024.66;10249337;28;779;-71
2023/06/25 07:21:11;;;;;;;;;;;22.50;67.90;;;21.95;59.12;100028.06;10248937;28;1963;-72
2023/06/25 07:26:06;;;;;;;;;;;22.50;67.40;;;21.97;58.28;100023.53;10247884;28;1326;-69
2023/06/25 07:31:01;;;;;;;;;;;22.50;65.30;;;21.98;57.11;100021.72;10248576;28;1218;-69
2023/06/25 07:35:57;;;;;;;;;;;22.60;63.10;;;21.97;57.33;100020.88;10247640;28;838;-70
2023/06/25 07:40:52;;;;;;;;;;;22.60;63.00;;;21.98;55.95;100022.59;10248524;28;1910;-69
2023/06/25 07:45:48;;;;;;;;;;;22.60;61.10;;;22.00;55.37;100035.75;10248051;28;950;-68
2023/06/25 07:50:43;;;;;;;;;;;22.60;60.50;;;22.00;56.39;100036.63;10248102;28;909;-68
2023/06/25 07:55:40;;;;;;;;;;;22.60;60.70;;;21.99;56.01;100029.59;10248226;28;878;-67
2023/06/25 08:00:36;;;;;;;;;;;22.60;60.50;;;22.04;54.67;100027.56;10247702;28;1975;-69
2023/06/25 08:05:31;;;;;;;;;;;22.60;59.60;;;22.05;54.86;100023.94;10247221;28;1189;-70
2023/06/25 08:10:26;;;;;;;;;;;22.60;59.80;;;22.02;55.52;100023.28;10247187;28;772;-68
2023/06/25 08:15:22;;;;;;;;;;;22.60;60.20;;;21.99;55.80;100019.00;10246908;28;846;-67
2023/06/25 08:20:17;;;;;;;;;;;22.60;61.00;;;21.98;55.82;100011.97;10247124;28;1915;-67
2023/06/25 08:25:13;;;;;;;;;;;22.60;60.80;;;21.99;55.83;100010.19;10247054;28;886;-66
2023/06/25 08:30:08;;;;;;;;;;;22.60;61.10;;;21.99;55.77;100008.38;10246178;28;928;-66
2023/06/25 08:35:03;;;;;;;;;;;22.50;61.00;;;22.00;55.82;100006.56;10245342;28;1300;-67
2023/06/25 08:39:59;;;;;;;;;;;22.50;61.30;;;21.99;55.67;100005.72;10246337;28;1973;-67
2023/06/25 08:44:54;;;;;;;;;;;22.50;61.40;;;22.00;55.67;100007.41;10245937;28;842;-66
2023/06/25 08:49:50;;;;;;;;;;;22.50;61.20;;;22.01;55.68;99997.69;10245863;28;822;-66
2023/06/25 08:54:45;;;;;;;;;;;22.50;61.30;;;22.01;55.61;100000.34;10245999;28;794;-70
2023/06/25 08:59:40;;;;;;;;;;;22.50;61.50;;;22.00;55.63;99994.16;10245032;28;1977;-70
2023/06/25 09:04:36;;;;;;;;;;;22.50;61.30;;;22.02;55.59;99994.06;10244955;28;1050;-70
2023/06/25 09:09:31;;;;;;;;;;;22.50;61.40;;;22.01;55.60;99989.72;10245752;28;855;-70
2023/06/25 09:14:26;;;;;;;;;;;22.50;61.40;;;22.01;55.73;99990.56;10244641;28;878;-70
2023/06/25 09:19:22;;;;;;;;;;;22.60;61.80;;;22.02;55.61;99986.09;10244999;28;1910;-69
2023/06/25 09:24:17;;;;;;;;;;;22.50;61.70;;;22.02;55.73;99981.66;10244389;28;770;-70
2023/06/25 09:29:13;;;;;;;;;;;22.50;61.60;;;22.02;55.78;99986.97;10244449;28;938;-70
2023/06/25 09:34:08;;;;;;;;;;;22.50;61.60;;;22.03;55.56;99980.72;10243871;28;1162;-70
2023/06/25 09:39:04;;;;;;;;;;;22.50;61.80;;;22.03;55.58;99970.09;10243860;28;1910;-69
2023/06/25 09:43:59;;;;;;;;;;;22.50;61.80;;;22.04;55.73;99974.47;10243709;28;962;-70
2023/06/25 09:48:56;;;;;;;;;;;22.50;61.80;;;22.05;55.52;99980.63;10243813;28;882;-70
2023/06/25 09:53:52;;;;;;;;;;;22.50;61.70;;;22.07;55.70;99974.28;10242754;28;1233;-71
2023/06/25 09:58:47;;;;;;;;;;;22.50;61.80;;;22.07;55.67;99966.31;10243221;28;1971;-71
2023/06/25 10:03:43;;;;;;;;;;;22.50;62.00;;;22.07;55.65;99962.81;10243473;28;1011;-68
2023/06/25 10:08:38;;;;;;;;;;;22.50;62.20;;;22.08;55.77;99961.84;10226248;28;861;-68
2023/06/25 10:13:33;;;;;;;;;;;22.60;63.10;;;22.09;55.74;99950.31;10226957;28;747;-66
2023/06/25 10:18:29;;;;;;;;;;;22.50;62.20;;;22.10;55.81;99952.84;10243773;28;1910;-66
2023/06/25 10:23:25;;;;;;;;;;;22.50;63.20;;;22.10;55.65;99946.69;10243177;28;879;-66
2023/06/25 10:28:21;;;;;;;;;;;22.50;62.30;;;22.10;55.83;99938.72;10243592;28;821;-65
2023/06/25 10:33:16;;;;;;;;;;;22.50;62.40;;;22.11;55.84;99937.78;10242206;28;1233;-66
2023/06/25 10:38:12;;;;;;;;;;;22.60;63.60;;;22.13;55.91;99932.41;10242801;28;1906;-65
2023/06/25 10:43:07;;;;;;;;;;;22.60;62.60;;;22.14;55.85;99932.31;10244476;28;787;-66
2023/06/25 10:48:03;;;;;;;;;;;22.60;62.60;;;22.16;55.76;99929.56;10250174;28;835;-66
2023/06/25 10:52:58;;;;;;;;;;;22.60;62.60;;;22.14;55.73;99932.31;10249930;28;868;-66
2023/06/25 10:57:54;;;;;;;;;;;22.60;62.80;;;22.07;56.07;99923.00;10249301;28;1964;-66
2023/06/25 11:02:50;;;;;;;;;;;22.50;62.90;;;22.03;56.45;99918.78;10250079;28;848;-67
2023/06/25 11:07:46;;;;;;;;;;;22.50;63.10;;;22.02;56.21;99917.94;10250041;28;840;-65
2023/06/25 11:12:41;;;;;;;;;;;22.50;63.10;;;22.13;56.04;99903.19;10248732;28;841;-66
2023/06/25 11:17:37;;;;;;;;;;;22.60;63.00;;;22.07;56.30;99902.59;10250316;28;1972;-66
2023/06/25 11:22:32;;;;;;;;;;;22.60;63.20;;;22.03;56.37;99903.75;10249796;28;875;-66
2023/06/25 11:27:28;;;;;;;;;;;22.50;63.30;;;22.07;56.35;99897.28;10248973;28;952;-66
2023/06/25 11:32:23;;;;;;;;;;;22.60;63.60;;;22.15;56.42;99890.69;10248804;28;1157;-66
2023/06/25 11:37:19;;;;;;;;;;;22.60;64.40;;;22.17;56.15;99887.00;10248482;28;1910;-66
2023/06/25 11:42:14;;;;;;;;;;;22.60;63.70;;;22.19;56.47;99886.91;10248971;28;880;-66
2023/06/25 11:47:09;;;;;;;;;;;22.60;63.80;;;22.20;56.39;99878.03;10248273;28;794;-65
2023/06/25 11:52:05;;;;;;;;;;;22.60;63.90;;;22.21;56.58;99874.41;10248759;28;959;-65
2023/06/25 11:57:00;;;;;;;;;;;22.60;63.90;;;22.12;56.76;99873.13;10246893;28;1138;-66
2023/06/25 12:01:56;;;;;;;;;;;22.60;63.90;;;22.09;56.66;99881.28;10247735;28;1955;-66
2023/06/25 12:06:51;;;;;;;;;;;22.60;64.10;;;22.17;56.56;99867.56;10247315;28;885;-66
2023/06/25 12:11:46;;;;;;;;;;;22.60;64.00;;;22.10;56.72;99859.94;10247654;28;938;-66
2023/06/25 12:16:42;;;;;;;;;;;22.60;64.10;;;22.10;56.72;99862.59;10246372;28;969;-66
2023/06/25 12:21:37;;;;;;;;;;;22.60;64.00;;;22.09;56.87;99852.09;10246645;28;1981;-66
2023/06/25 12:26:33;;;;;;;;;;;22.60;64.00;;;22.02;57.06;99851.59;10246326;28;1157;-66
2023/06/25 12:31:29;;;;;;;;;;;22.60;64.10;;;22.01;57.00;99841.06;10246651;28;1101;-66
2023/06/25 12:36:24;;;;;;;;;;;22.60;64.00;;;22.00;56.85;99840.19;10246297;28;838;-65
2023/06/25 12:41:20;;;;;;;;;;;22.60;63.90;;;22.00;56.78;99832.25;10245365;28;1914;-66
2023/06/25 12:46:15;;;;;;;;;;;22.60;63.90;;;22.00;56.86;99824.28;10246334;28;811;-66
2023/06/25 12:51:10;;;;;;;;;;;22.60;63.80;;;22.01;56.75;99811.88;10245484;28;794;-66
2023/06/25 12:56:06;;;;;;;;;;;22.60;63.80;;;21.99;56.70;99819.94;10245427;28;876;-66
2023/06/25 13:01:01;;;;;;;;;;;22.60;63.80;;;22.01;56.89;99815.38;10245697;28;1910;-66
2023/06/25 13:05:57;;;;;;;;;;;22.60;63.80;;;22.00;56.86;99812.81;10244222;28;882;-65
2023/06/25 13:10:52;;;;;;;;;;;22.60;63.70;;;22.00;56.71;99808.34;10245375;28;902;-66
2023/06/25 13:15:47;;;;;;;;;;;22.60;63.70;;;22.02;56.88;99810.94;10245858;28;764;-66
2023/06/25 13:20:43;;;;;;;;;;;22.60;63.80;;;22.02;56.81;99805.63;10245234;28;1910;-66
2023/06/25 13:25:38;;;;;;;;;;;22.60;63.80;;;22.01;56.59;99799.47;10244821;28;957;-66
2023/06/25 13:30:34;;;;;;;;;;;22.60;63.70;;;22.02;56.91;99793.19;10244150;28;979;-66
2023/06/25 13:35:29;;;;;;;;;;;22.60;63.80;;;22.02;56.98;99790.53;10243410;28;1685;-66
2023/06/25 13:40:24;;;;;;;;;;;22.60;63.90;;;22.03;56.82;99781.66;10244178;28;1915;-66
2023/06/25 13:45:20;;;;;;;;;;;22.60;63.70;;;22.03;56.60;99786.97;10244251;28;834;-66
2023/06/25 13:50:17;;;;;;;;;;;22.60;63.70;;;22.05;56.64;99781.53;10244028;28;813;-66
2023/06/25 13:55:12;;;;;;;;;;;22.60;63.70;;;22.05;56.71;99773.56;10244557;28;861;-67
2023/06/25 14:00:08;;;;;;;;;;;22.60;63.70;;;22.05;56.65;99763.81;10243837;28;1906;-66
2023/06/25 14:05:03;;;;;;;;;;;22.60;63.70;;;22.06;56.75;99762.00;10243732;28;915;-66
2023/06/25 14:09:59;;;;;;;;;;;22.70;63.80;;;22.07;56.76;99767.22;10244224;28;973;-66
2023/06/25 14:14:54;;;;;;;;;;;22.70;63.90;;;22.07;56.97;99753.94;10243803;28;897;-66
2023/06/25 14:19:49;;;;;;;;;;;22.70;63.90;;;22.08;57.02;99750.34;10249215;28;1967;-65
2023/06/25 14:24:45;;;;;;;;;;;22.70;64.00;;;22.10;56.80;99756.41;10251441;28;976;-67
2023/06/25 14:29:40;;;;;;;;;;;22.70;64.00;;;22.11;56.85;99749.31;10252456;28;864;-66
2023/06/25 14:34:36;;;;;;;;;;;22.70;64.10;;;22.13;56.79;99738.59;10251452;28;1300;-68
2023/06/25 14:39:31;;;;;;;;;;;22.70;64.00;;;22.13;56.81;99738.59;10250713;28;1905;-66
2023/06/25 14:44:26;;;;;;;;;;;22.70;63.90;;;22.13;56.79;99727.97;10251316;28;852;-66
2023/06/25 14:49:22;;;;;;;;;;;22.70;63.90;;;22.15;56.85;99731.41;10250505;28;931;-66
2023/06/25 14:54:17;;;;;;;;;;;22.70;64.00;;;22.17;56.82;99729.50;10250327;28;787;-66
2023/06/25 14:59:13;;;;;;;;;;;22.70;64.00;;;22.17;56.68;99722.41;10250070;28;1901;-66
2023/06/25 15:04:08;;;;;;;;;;;22.80;64.00;;;22.18;56.96;99715.28;10250913;28;974;-66
2023/06/25 15:09:05;;;;;;;;;;;22.80;64.00;;;22.19;57.01;99709.03;10249186;28;904;-66
2023/06/25 15:14:00;;;;;;;;;;;22.80;64.00;;;22.22;56.66;99700.91;10250054;28;858;-67
2023/06/25 15:18:56;;;;;;;;;;;22.80;64.00;;;22.24;57.36;99701.63;10249856;28;1906;-70
2023/06/25 15:23:51;;;;;;;;;;;22.80;64.50;;;22.25;57.11;99690.94;10249205;28;791;-67
2023/06/25 15:28:46;;;;;;;;;;;22.80;64.20;;;22.27;57.09;99688.19;10248811;28;803;-66
2023/06/25 15:33:42;;;;;;;;;;;22.80;64.30;;;22.28;57.14;99688.09;10249230;28;1153;-66
2023/06/25 15:38:38;;;;;;;;;;;22.90;64.20;;;22.30;57.53;99685.34;10249157;28;1979;-67
2023/06/25 15:43:33;;;;;;;;;;;22.90;65.00;;;22.32;57.89;99680.75;10249079;28;887;-67
2023/06/25 15:48:28;;;;;;;;;;;22.90;65.10;;;22.33;57.59;99679.00;10248209;28;855;-66
2023/06/25 15:53:24;;;;;;;;;;;22.90;65.20;;;22.33;57.50;99660.41;10248103;28;809;-67
2023/06/25 15:58:19;;;;;;;;;;;22.90;64.90;;;22.35;57.23;99669.09;10248452;28;1910;-66
2023/06/25 16:03:14;;;;;;;;;;;22.90;64.70;;;22.36;57.14;99665.50;10247998;28;838;-67
2023/06/25 16:08:10;;;;;;;;;;;22.90;64.50;;;22.36;57.17;99650.41;10247909;28;862;-67
2023/06/25 16:13:05;;;;;;;;;;;23.00;64.60;;;22.37;57.26;99649.47;10248790;28;830;-66
2023/06/25 16:18:01;;;;;;;;;;;23.00;64.60;;;22.39;57.12;99649.38;10247057;28;1914;-65
2023/06/25 16:22:56;;;;;;;;;;;23.00;64.50;;;22.39;57.26;99636.94;10248275;28;870;-66
2023/06/25 16:27:51;;;;;;;;;;;23.00;64.40;;;22.41;57.19;99639.50;10246742;28;802;-67
2023/06/25 16:32:47;;;;;;;;;;;23.00;64.40;;;22.41;57.17;99637.72;10245738;28;1224;-67
2023/06/25 16:37:42;;;;;;;;;;;23.00;64.30;;;22.43;56.94;99629.66;10246367;28;1968;-66
2023/06/25 16:42:38;;;;;;;;;;;23.00;64.20;;;22.43;57.03;99630.50;10228541;28;750;-66
2023/06/25 16:47:33;;;;;;;;;;;23.00;64.10;;;22.44;56.91;99621.56;10246805;28;873;-66
2023/06/25 16:52:28;;;;;;;;;;;23.00;64.20;;;22.46;56.82;99622.31;10246184;28;853;-67
2023/06/25 16:57:24;;;;;;;;;;;23.10;64.20;;;22.47;56.88;99631.13;10246541;28;1918;-66
2023/06/25 17:02:19;;;;;;;;;;;23.10;64.20;;;22.47;56.91;99616.06;10245737;28;859;-66
2023/06/25 17:07:15;;;;;;;;;;;23.10;64.20;;;22.50;56.90;99615.00;10245940;28;814;-66
2023/06/25 17:12:13;;;;;;;;;;;23.10;64.10;;;22.51;56.90;99616.72;10245120;28;743;-66
2023/06/25 17:17:08;;;;;;;;;;;23.10;64.10;;;22.51;56.76;99612.25;10244282;28;1060;-66
2023/06/25 17:22:04;;;;;;;;;;;23.10;64.00;;;22.52;56.98;99611.28;10245343;28;1964;-66
2023/06/25 17:27:01;;;;;;;;;;;23.10;64.00;;;22.52;56.95;99615.75;10245297;28;794;-65
2023/06/25 17:31:57;;;;;;;;;;;23.20;64.00;;;22.55;57.03;99607.59;10244573;28;1354;-65
2023/06/25 17:36:52;;;;;;;;;;;23.20;64.20;;;22.57;56.72;99613.66;10245283;28;854;-65
2023/06/25 17:41:47;;;;;;;;;;;23.20;64.10;;;22.58;56.53;99614.50;10244887;28;1977;-65
2023/06/25 17:46:46;;;;;;;;;;;23.20;63.90;;;22.57;56.72;99610.16;10244177;28;874;-65
2023/06/25 17:51:41;;;;;;;;;;;23.20;63.80;;;22.56;56.99;99611.09;10243681;28;862;-65
2023/06/25 17:56:36;;;;;;;;;;;23.20;63.80;;;22.57;56.96;99610.16;10244606;28;834;-67
2023/06/25 18:01:32;;;;;;;;;;;23.20;64.00;;;22.57;57.03;99611.00;10244355;28;1910;-66
2023/06/25 18:06:27;;;;;;;;;;;23.20;64.00;;;22.57;57.06;99610.16;10244350;28;760;-66
2023/06/25 18:11:24;;;;;;;;;;;23.20;64.00;;;22.57;57.14;99602.19;10244323;28;927;-66
2023/06/25 18:16:20;;;;;;;;;;;23.20;64.00;;;22.56;57.02;99598.69;10243554;28;912;-66
2023/06/25 18:21:15;;;;;;;;;;;23.20;64.10;;;22.58;56.97;99609.19;10243452;28;1969;-66
2023/06/25 18:26:11;;;;;;;;;;;23.20;64.00;;;22.58;57.14;99610.03;10243466;28;850;-66
2023/06/25 18:31:06;;;;;;;;;;;23.30;64.10;;;22.57;57.17;99607.50;10243039;28;1400;-66
2023/06/25 18:36:02;;;;;;;;;;;23.30;64.10;;;22.59;56.87;99610.91;10243337;28;797;-66
2023/06/25 18:41:00;;;;;;;;;;;23.30;64.10;;;22.59;57.01;99608.25;10243922;28;1910;-67
2023/06/25 18:45:56;;;;;;;;;;;23.30;64.10;;;22.60;57.15;99599.31;10243628;28;925;-67
2023/06/25 18:50:52;;;;;;;;;;;23.30;64.00;;;22.60;57.04;99604.63;10242993;28;879;-67
2023/06/25 18:55:48;;;;;;;;;;;23.30;64.10;;;22.60;56.93;99600.16;10242956;28;785;-66
2023/06/25 19:00:44;;;;;;;;;;;23.30;64.00;;;22.60;57.02;99600.16;10243524;28;1910;-66
2023/06/25 19:05:39;;;;;;;;;;;23.30;64.10;;;22.62;56.95;99586.78;10246071;28;837;-67
2023/06/25 19:10:35;;;;;;;;;;;23.30;64.00;;;22.62;57.04;99595.63;10249778;28;781;-66
2023/06/25 19:15:30;;;;;;;;;;;23.30;63.90;;;22.62;56.96;99597.44;10250128;28;789;-67
2023/06/25 19:20:26;;;;;;;;;;;23.30;63.90;;;22.68;57.09;99581.06;10249901;28;1981;-64
2023/06/25 19:25:21;;;;;;;;;;;23.40;63.90;;;22.67;57.07;99585.53;10249795;28;794;-66
2023/06/25 19:30:17;;;;;;;;;;;23.30;63.90;;;22.70;57.01;99581.81;10249577;28;787;-69
2023/06/25 19:35:12;;;;;;;;;;;23.40;64.80;;;22.74;56.73;99578.00;10250128;28;1369;-69
2023/06/25 19:40:08;;;;;;;;;;;23.40;64.00;;;22.76;56.86;99581.41;10248701;28;1989;-69
2023/06/25 19:45:03;;;;;;;;;;;23.50;63.90;;;22.76;56.70;99576.09;10247932;28;862;-69
2023/06/25 19:49:58;;;;;;;;;;;23.50;63.80;;;22.78;56.67;99578.66;10248300;28;898;-69
2023/06/25 19:54:54;;;;;;;;;;;23.50;64.60;;;22.78;56.70;99576.00;10248276;28;889;-69
2023/06/25 19:59:49;;;;;;;;;;;23.50;63.60;;;22.79;56.56;99583.84;10248483;28;1918;-69
2023/06/25 20:04:45;;;;;;;;;;;23.50;63.60;;;22.80;56.58;99595.34;10247236;28;869;-69
2023/06/25 20:09:40;;;;;;;;;;;23.50;64.40;;;22.79;56.66;99586.50;10248058;28;958;-65
2023/06/25 20:14:36;;;;;;;;;;;23.50;63.60;;;22.77;56.70;99591.09;10247828;28;869;-66
2023/06/25 20:19:32;;;;;;;;;;;23.50;63.60;;;22.76;56.77;99590.22;10247893;28;1977;-66
2023/06/25 20:24:30;;;;;;;;;;;23.50;63.70;;;22.74;56.98;99591.28;10246948;28;951;-66
2023/06/25 20:29:25;;;;;;;;;;;23.50;63.60;;;22.73;56.89;99587.78;10246938;28;903;-66
2023/06/25 20:34:22;;;;;;;;;;;23.50;63.60;;;22.76;56.74;99586.72;10246811;28;1224;-66
2023/06/25 20:39:18;;;;;;;;;;;23.50;63.70;;;22.82;56.95;99577.47;10246265;28;1965;-66
2023/06/25 20:44:15;;;;;;;;;;;23.50;63.80;;;22.81;57.17;99587.25;10246146;28;859;-67
2023/06/25 20:49:18;;;;;;;;;;;23.60;64.00;;;22.82;56.87;99585.44;10246633;28;902;-66
2023/06/25 20:54:14;;;;;;;;;;;23.60;64.00;;;22.78;57.07;99578.66;10245774;28;1067;-66
2023/06/25 20:59:09;;;;;;;;;;;23.60;64.00;;;22.79;57.39;99583.00;10246343;28;1913;-66
2023/06/25 21:04:05;;;;;;;;;;;23.60;63.80;;;22.76;57.21;99576.09;10246002;28;946;-66
2023/06/25 21:09:00;;;;;;;;;;;23.60;63.80;;;22.76;57.04;99581.41;10244620;28;818;-67
2023/06/25 21:13:55;;;;;;;;;;;23.60;63.80;;;22.75;57.08;99577.91;10245192;28;898;-67
2023/06/25 21:18:51;;;;;;;;;;;23.60;63.70;;;22.75;56.91;99572.59;10245047;28;1914;-67
2023/06/25 21:23:46;;;;;;;;;;;23.60;63.70;;;22.75;57.04;99572.59;10244810;28;924;-67
2023/06/25 21:28:42;;;;;;;;;;;23.60;63.70;;;22.74;57.11;99564.69;10243988;28;929;-66
2023/06/25 21:33:37;;;;;;;;;;;23.60;63.60;;;22.75;57.13;99571.75;10244962;28;1149;-67
2023/06/25 21:38:32;;;;;;;;;;;23.60;63.60;;;22.74;57.11;99557.63;10244417;28;1918;-67
2023/06/25 21:43:28;;;;;;;;;;;23.60;63.60;;;22.73;57.13;99563.00;10245362;28;778;-66
2023/06/25 21:48:23;;;;;;;;;;;23.60;63.50;;;22.75;57.15;99561.13;10244773;28;842;-63
2023/06/25 21:53:19;;;;;;;;;;;23.60;63.50;;;22.75;57.24;99561.13;10244057;28;754;-63
2023/06/25 21:58:14;;;;;;;;;;;23.60;63.50;;;22.75;56.94;99566.44;10244329;28;1915;-66
2023/06/25 22:03:09;;;;;;;;;;;23.60;63.50;;;22.74;57.24;99564.69;10244511;28;875;-66
2023/06/25 22:08:05;;;;;;;;;;;23.60;63.40;;;22.74;57.14;99554.06;10244384;28;877;-67
2023/06/25 22:13:03;;;;;;;;;;;23.60;63.40;;;22.74;57.12;99549.63;10244351;28;859;-67
2023/06/25 22:17:59;;;;;;;;;;;23.60;63.30;;;22.73;57.15;99547.91;10243486;28;1898;-67
2023/06/25 22:22:54;;;;;;;;;;;23.60;63.30;;;22.74;56.89;99554.97;10244654;28;846;-67
2023/06/25 22:27:50;;;;;;;;;;;23.60;63.30;;;22.74;57.07;99554.06;10244059;28;839;-66
2023/06/25 22:32:45;;;;;;;;;;;23.60;63.30;;;22.74;57.22;99554.97;10244166;28;1289;-67
2023/06/25 22:37:41;;;;;;;;;;;23.60;63.20;;;22.74;57.08;99546.09;10244192;28;1975;-67
2023/06/25 22:42:36;;;;;;;;;;;23.60;63.20;;;22.73;56.95;99542.59;10252105;28;855;-66